Time;durP1;ratioP1;P1;durP2;ratioP2;P2;SDS_P1;SDS_P2;PMS_P1;PMS_P2;Temp;Humidity;BMP_temperature;BMP_pressure;BME280_temperature;BME280_humidity;BME280_pressure;Samples;Min_cycle;Max_cycle;Signal;HPM_P1;HPM_P2
2021/05/09 00:01:57;;;;;;;5.28;1.40;;;;;;;7.15;64.14;100545.63;1727166;83;21338;-70
2021/05/09 00:04:25;;;;;;;1.90;1.10;;;;;;;7.12;64.15;100552.28;1726245;83;21266;-69
2021/05/09 00:06:55;;;;;;;3.75;1.32;;;;;;;7.11;64.08;100553.30;1726263;83;21064;-69
2021/05/09 00:09:22;;;;;;;3.00;1.32;;;;;;;7.11;64.21;100554.66;1726352;83;21083;-68
2021/05/09 00:11:51;;;;;;;1.90;1.30;;;;;;;7.08;64.22;100553.64;1726383;83;21083;-69
2021/05/09 00:14:19;;;;;;;2.55;1.50;;;;;;;7.10;64.17;100558.92;1726258;83;21318;-68
2021/05/09 00:16:46;;;;;;;1.62;1.27;;;;;;;7.07;64.21;100560.12;1726290;83;21348;-68
2021/05/09 00:19:13;;;;;;;3.72;1.32;;;;;;;7.10;64.21;100559.77;1726209;83;21099;-69
2021/05/09 00:21:41;;;;;;;5.10;1.60;;;;;;;7.10;64.19;100552.11;1726268;83;21103;-69
2021/05/09 00:24:09;;;;;;;2.33;1.40;;;;;;;7.10;64.12;100558.41;1726202;83;21080;-69
2021/05/09 00:26:37;;;;;;;3.75;1.65;;;;;;;7.10;63.99;100558.41;1726391;83;21106;-69
2021/05/09 00:29:04;;;;;;;1.72;1.17;;;;;;;7.12;63.93;100559.60;1726175;83;21094;-69
2021/05/09 00:31:32;;;;;;;3.08;1.40;;;;;;;7.10;63.77;100561.13;1726304;83;21072;-68
2021/05/09 00:33:59;;;;;;;2.05;1.07;;;;;;;7.09;63.88;100559.44;1726322;83;21083;-69
2021/05/09 00:36:27;;;;;;;3.00;1.50;;;;;;;7.12;63.82;100565.91;1726216;83;21082;-69
2021/05/09 00:38:56;;;;;;;2.60;1.25;;;;;;;7.10;63.85;100575.27;1726200;83;21095;-68
2021/05/09 00:41:23;;;;;;;5.12;1.50;;;;;;;7.10;63.75;100576.13;1726347;83;21292;-68
2021/05/09 00:43:51;;;;;;;2.83;1.50;;;;;;;7.08;63.57;100577.31;1726215;83;21299;-68
2021/05/09 00:46:19;;;;;;;1.85;1.37;;;;;;;7.09;63.72;100584.47;1726284;83;21259;-69
2021/05/09 00:48:47;;;;;;;1.98;1.30;;;;;;;7.09;63.57;100585.31;1726282;83;21079;-68
2021/05/09 00:51:14;;;;;;;2.80;1.50;;;;;;;7.06;63.52;100582.08;1726214;83;21146;-68
2021/05/09 00:53:43;;;;;;;2.27;1.57;;;;;;;7.01;63.42;100582.59;1726187;83;21076;-68
2021/05/09 00:56:15;;;;;;;2.62;1.30;;;;;;;6.90;63.68;100581.06;1724582;83;21143;-68
2021/05/09 00:58:44;;;;;;;3.02;1.47;;;;;;;6.87;63.82;100591.44;1723375;81;21126;-69
2021/05/09 01:01:12;;;;;;;1.92;1.20;;;;;;;6.85;63.81;100590.77;1702818;83;21091;-69
2021/05/09 01:03:42;;;;;;;1.82;1.30;;;;;;;6.85;64.01;100592.13;1723445;83;21080;-69
2021/05/09 01:06:10;;;;;;;2.15;1.30;;;;;;;6.89;64.15;100590.77;1723351;83;21099;-69
2021/05/09 01:08:38;;;;;;;2.15;1.35;;;;;;;6.92;64.08;100595.88;1704705;83;21374;-69
2021/05/09 01:11:07;;;;;;;2.37;1.50;;;;;;;6.95;63.95;100596.89;1725481;83;21320;-69
2021/05/09 01:13:35;;;;;;;2.27;1.32;;;;;;;6.96;63.86;100600.81;1725475;83;21088;-69
2021/05/09 01:16:03;;;;;;;1.95;1.40;;;;;;;6.94;63.75;100606.09;1723814;83;21290;-69
2021/05/09 01:18:31;;;;;;;1.98;1.30;;;;;;;6.89;63.93;100608.47;1702688;83;21366;-69
2021/05/09 01:20:58;;;;;;;1.67;1.20;;;;;;;6.81;63.96;100611.19;1723310;83;21383;-70
2021/05/09 01:23:26;;;;;;;2.80;1.40;;;;;;;6.73;64.14;100614.75;1723524;83;21373;-69
2021/05/09 01:25:54;;;;;;;2.27;1.27;;;;;;;6.71;64.37;100613.21;1723382;83;21122;-69
2021/05/09 01:28:22;;;;;;;2.50;1.40;;;;;;;6.75;64.38;100618.16;1723393;83;21354;-69
2021/05/09 01:30:49;;;;;;;2.10;1.30;;;;;;;6.67;64.44;100618.98;1723468;83;21087;-68
2021/05/09 01:33:18;;;;;;;1.98;1.50;;;;;;;6.61;64.70;100623.74;1723300;83;21335;-67
2021/05/09 01:35:46;;;;;;;1.90;1.20;;;;;;;6.59;64.91;100620.34;1723416;83;21079;-67
2021/05/09 01:38:14;;;;;;;2.10;1.40;;;;;;;6.59;65.04;100620.84;1723317;83;21060;-68
2021/05/09 01:40:42;;;;;;;3.00;1.47;;;;;;;6.61;65.02;100625.11;1723322;83;21103;-69
2021/05/09 01:43:09;;;;;;;4.03;1.42;;;;;;;6.61;64.95;100630.55;1724260;83;21306;-67
2021/05/09 01:45:37;;;;;;;2.62;1.45;;;;;;;6.58;64.94;100632.75;1723400;83;21107;-67
2021/05/09 01:48:05;;;;;;;2.40;1.27;;;;;;;6.55;65.00;100631.72;1723303;82;21099;-68
2021/05/09 01:50:33;;;;;;;3.25;1.50;;;;;;;6.53;65.09;100641.42;1723477;83;21075;-69
2021/05/09 01:53:02;;;;;;;1.82;1.20;;;;;;;6.51;65.23;100636.65;1723386;83;21234;-68
2021/05/09 01:55:31;;;;;;;2.00;1.40;;;;;;;6.52;65.37;100636.14;1703096;83;21190;-67
2021/05/09 01:58:06;;;;;;;3.22;1.75;;;;;;;6.52;65.38;100641.08;1720687;83;21260;-69
2021/05/09 02:00:44;;;;;;;2.10;1.57;;;;;;;6.47;65.37;100644.77;1724431;83;21099;-67
2021/05/09 02:03:13;;;;;;;2.58;1.30;;;;;;;6.45;65.48;100646.80;1726070;83;21955;-67
2021/05/09 02:05:41;;;;;;;2.35;1.47;;;;;;;6.43;65.36;100644.76;1726222;83;21052;-68
2021/05/09 02:08:11;;;;;;;2.02;1.45;;;;;;;6.40;65.44;100651.04;1726209;83;21079;-68
2021/05/09 02:10:40;;;;;;;3.17;1.47;;;;;;;6.31;65.53;100654.23;1725605;83;21076;-68
2021/05/09 02:13:07;;;;;;;5.03;1.80;;;;;;;6.30;65.68;100653.89;1726167;83;21429;-68
2021/05/09 02:15:38;;;;;;;1.90;1.45;;;;;;;6.38;65.72;100662.09;1725076;83;21116;-68
2021/05/09 02:18:06;;;;;;;2.02;1.27;;;;;;;6.42;65.57;100661.25;1726207;83;21079;-69
2021/05/09 02:20:36;;;;;;;2.40;1.62;;;;;;;6.41;65.63;100660.40;1726236;83;21761;-68
2021/05/09 02:23:03;;;;;;;3.52;1.60;;;;;;;6.39;65.72;100670.59;1726157;83;21330;-68
2021/05/09 02:25:32;;;;;;;3.27;1.82;;;;;;;6.37;65.77;100672.63;1726194;83;21060;-68
2021/05/09 02:28:02;;;;;;;2.22;1.50;;;;;;;6.33;65.51;100670.75;1725893;83;21079;-68
2021/05/09 02:30:30;;;;;;;2.58;1.57;;;;;;;6.30;65.51;100675.66;1726196;83;21241;-69
2021/05/09 02:32:58;;;;;;;3.37;1.77;;;;;;;6.30;65.46;100681.11;1726292;83;21128;-69
2021/05/09 02:35:26;;;;;;;2.75;1.80;;;;;;;6.27;65.48;100685.01;1699098;83;21088;-68
2021/05/09 02:37:54;;;;;;;3.35;1.67;;;;;;;6.27;65.64;100695.04;1726166;83;21072;-67
2021/05/09 02:40:22;;;;;;;3.55;1.77;;;;;;;6.29;65.78;100690.28;1698997;83;21099;-67
2021/05/09 02:42:50;;;;;;;3.12;1.60;;;;;;;6.28;65.99;100702.19;1699112;83;21099;-68
2021/05/09 02:45:18;;;;;;;2.45;1.57;;;;;;;6.24;65.98;100703.02;1726132;83;21318;-67
2021/05/09 02:47:46;;;;;;;2.42;1.60;;;;;;;6.22;65.94;100709.64;1699284;83;21095;-67
2021/05/09 02:50:16;;;;;;;3.00;1.67;;;;;;;6.22;65.94;100711.84;1726148;83;21866;-67
2021/05/09 02:52:43;;;;;;;3.00;1.60;;;;;;;6.23;65.85;100716.78;1726307;83;21347;-67
2021/05/09 02:55:13;;;;;;;2.45;1.50;;;;;;;6.28;65.70;100724.80;1699261;83;21099;-67
2021/05/09 02:57:42;;;;;;;2.50;1.52;;;;;;;6.29;65.74;100722.94;1717467;83;21159;-67
2021/05/09 03:00:10;;;;;;;2.20;1.50;;;;;;;6.29;65.46;100739.27;1689742;83;21213;-68
2021/05/09 03:02:40;;;;;;;3.47;1.57;;;;;;;6.27;65.41;100736.70;1714268;83;21745;-68
2021/05/09 03:05:10;;;;;;;2.50;1.60;;;;;;;6.29;65.31;100742.84;1716232;83;21175;-68
2021/05/09 03:07:38;;;;;;;2.58;1.60;;;;;;;6.28;65.28;100743.86;1716431;83;21247;-68
2021/05/09 03:10:07;;;;;;;2.72;1.75;;;;;;;6.28;65.40;100746.58;1716366;83;21045;-69
2021/05/09 03:12:34;;;;;;;1.87;1.40;;;;;;;6.30;65.43;100756.80;1716608;83;21128;-68
2021/05/09 03:15:05;;;;;;;2.92;1.42;;;;;;;6.29;65.35;100752.88;1716386;83;21037;-70
2021/05/09 03:17:33;;;;;;;2.50;1.70;;;;;;;6.29;65.42;100756.45;1716516;83;21256;-68
2021/05/09 03:20:01;;;;;;;2.22;1.70;;;;;;;6.34;65.40;100765.48;1716392;83;21084;-68
2021/05/09 03:22:28;;;;;;;2.12;1.50;;;;;;;6.36;65.20;100760.73;1716385;83;21072;-69
2021/05/09 03:24:56;;;;;;;3.40;1.80;;;;;;;6.36;65.11;100768.39;1716367;83;21044;-68
2021/05/09 03:27:23;;;;;;;4.45;1.87;;;;;;;6.38;65.06;100772.31;1716372;83;21067;-68
2021/05/09 03:29:51;;;;;;;3.37;1.60;;;;;;;6.42;65.03;100774.20;1716408;83;21065;-68
2021/05/09 03:32:18;;;;;;;2.47;1.70;;;;;;;6.47;64.93;100781.38;1716331;83;21176;-68
2021/05/09 03:34:46;;;;;;;2.90;1.55;;;;;;;6.49;64.93;100789.73;1716419;83;21310;-67
2021/05/09 03:37:13;;;;;;;2.87;1.70;;;;;;;6.53;64.86;100784.84;1716379;83;21307;-68
2021/05/09 03:39:40;;;;;;;4.58;1.80;;;;;;;6.55;64.84;100785.03;1716433;83;21045;-68
2021/05/09 03:42:07;;;;;;;2.05;1.45;;;;;;;6.61;64.73;100791.19;1716369;83;21017;-68
2021/05/09 03:44:35;;;;;;;3.17;1.80;;;;;;;6.67;64.61;100793.25;1716442;83;21044;-68
2021/05/09 03:47:02;;;;;;;2.27;1.70;;;;;;;6.67;64.38;100791.04;1716410;83;21085;-69
2021/05/09 03:49:30;;;;;;;3.83;1.80;;;;;;;6.67;64.40;100793.77;1716336;83;21027;-68
2021/05/09 03:51:58;;;;;;;2.65;1.50;;;;;;;6.64;64.30;100792.22;1689710;83;21344;-69
2021/05/09 03:54:25;;;;;;;2.90;1.80;;;;;;;6.60;64.25;100804.45;1716283;83;21739;-68
2021/05/09 03:56:53;;;;;;;3.42;1.75;;;;;;;6.60;64.32;100802.23;1719076;83;21213;-67
2021/05/09 03:59:20;;;;;;;3.10;1.70;;;;;;;6.64;64.39;100807.70;1723214;82;21144;-68
2021/05/09 04:01:47;;;;;;;3.75;1.50;;;;;;;6.66;64.43;100805.16;1723220;83;21052;-67
2021/05/09 04:04:15;;;;;;;2.45;1.65;;;;;;;6.66;64.36;100810.61;1723258;83;21095;-67
2021/05/09 04:06:42;;;;;;;2.10;1.47;;;;;;;6.63;64.46;100806.84;1723426;83;21079;-69
2021/05/09 04:09:11;;;;;;;4.05;1.60;;;;;;;6.65;64.49;100810.27;1723367;83;21084;-67
2021/05/09 04:11:38;;;;;;;2.95;2.10;;;;;;;6.70;64.37;100817.95;1723340;83;21083;-68
2021/05/09 04:14:05;;;;;;;4.17;1.75;;;;;;;6.74;64.42;100811.16;1723259;83;21803;-67
2021/05/09 04:16:33;;;;;;;3.75;1.87;;;;;;;6.82;64.31;100815.78;1723217;83;21838;-69
2021/05/09 04:19:00;;;;;;;2.72;1.70;;;;;;;6.83;64.05;100810.69;1725402;83;21773;-71
2021/05/09 04:21:27;;;;;;;2.60;1.62;;;;;;;6.85;63.92;100814.95;1723203;83;21749;-69
2021/05/09 04:23:55;;;;;;;3.27;1.57;;;;;;;6.90;63.97;100819.91;1723287;83;21315;-69
2021/05/09 04:26:22;;;;;;;5.12;1.80;;;;;;;6.93;64.07;100828.61;1723287;83;21059;-70
2021/05/09 04:28:50;;;;;;;2.60;1.70;;;;;;;6.93;63.65;100824.52;1723230;83;21095;-70
2021/05/09 04:31:17;;;;;;;3.58;2.00;;;;;;;6.94;63.70;100832.19;1724377;83;21314;-68
2021/05/09 04:33:45;;;;;;;3.55;1.87;;;;;;;6.98;63.71;100831.69;1723418;83;21318;-68
2021/05/09 04:36:12;;;;;;;2.55;1.72;;;;;;;7.04;63.52;100834.77;1723293;83;21190;-68
2021/05/09 04:38:41;;;;;;;3.75;2.10;;;;;;;7.09;63.42;100835.98;1723283;82;21231;-67
2021/05/09 04:41:09;;;;;;;2.83;2.00;;;;;;;7.14;63.39;100841.80;1723356;83;21448;-68
2021/05/09 04:43:38;;;;;;;3.98;1.90;;;;;;;7.21;63.19;100837.42;1723426;83;21351;-68
2021/05/09 04:46:06;;;;;;;3.00;2.00;;;;;;;7.27;62.96;100842.22;1723523;83;21435;-68
2021/05/09 04:48:33;;;;;;;2.90;1.87;;;;;;;7.35;62.77;100843.27;1723330;83;21080;-67
2021/05/09 04:51:01;;;;;;;3.15;1.62;;;;;;;7.38;62.38;100862.01;1723345;83;21108;-68
2021/05/09 04:53:37;;;;;;;2.77;1.80;;;;;;;7.41;61.97;100860.31;1723492;83;21127;-68
2021/05/09 04:56:07;;;;;;;3.08;1.60;;;;;;;7.43;61.98;100871.39;1723479;83;21419;-69
2021/05/09 04:58:41;;;;;;;3.20;1.85;;;;;;;7.51;61.88;100881.47;1716718;82;21346;-69
2021/05/09 05:01:11;;;;;;;2.77;1.77;;;;;;;7.57;61.67;100884.90;1716537;83;21465;-68
2021/05/09 05:03:39;;;;;;;3.35;1.90;;;;;;;7.60;61.19;100883.20;1716434;83;21866;-68
2021/05/09 05:06:07;;;;;;;2.22;1.70;;;;;;;7.61;61.19;100878.94;1716535;83;21076;-68
2021/05/09 05:08:34;;;;;;;2.67;1.90;;;;;;;7.65;61.02;100879.47;1716437;83;21049;-68
2021/05/09 05:11:08;;;;;;;2.37;1.60;;;;;;;7.69;60.78;100879.47;1716540;83;21065;-68
2021/05/09 05:13:36;;;;;;;3.47;1.80;;;;;;;7.73;60.56;100884.94;1716416;83;21053;-68
2021/05/09 05:16:06;;;;;;;2.85;1.90;;;;;;;7.75;59.86;100881.53;1716399;83;21183;-69
2021/05/09 05:18:36;;;;;;;3.05;1.87;;;;;;;7.77;59.32;100886.81;1716444;83;21257;-68
2021/05/09 05:21:09;;;;;;;3.58;1.92;;;;;;;7.77;59.20;100882.21;1716643;83;21013;-69
2021/05/09 05:23:35;;;;;;;2.33;1.60;;;;;;;7.82;59.40;100883.11;1716028;83;21250;-68
2021/05/09 05:26:04;;;;;;;1.90;1.45;;;;;;;7.87;58.63;100874.76;1716425;83;21294;-68
2021/05/09 05:28:32;;;;;;;2.20;1.72;;;;;;;7.93;58.50;100882.78;1716426;83;21001;-68
2021/05/09 05:31:00;;;;;;;2.40;1.50;;;;;;;7.99;58.30;100883.98;1716422;83;21086;-68
2021/05/09 05:33:34;;;;;;;2.75;1.60;;;;;;;8.04;58.24;100889.78;1716389;83;21045;-69
2021/05/09 05:36:04;;;;;;;3.60;1.82;;;;;;;8.09;58.01;100900.53;1716546;83;21181;-68
2021/05/09 05:38:32;;;;;;;1.98;1.50;;;;;;;8.13;57.35;100897.80;1716500;83;21279;-68
2021/05/09 05:40:59;;;;;;;3.02;1.90;;;;;;;8.14;57.16;100890.47;1716390;83;21258;-68
2021/05/09 05:43:29;;;;;;;1.95;1.47;;;;;;;8.14;56.96;100905.48;1716281;83;21032;-68
2021/05/09 05:45:58;;;;;;;2.92;2.00;;;;;;;8.18;57.05;100906.84;1716430;83;21155;-68
2021/05/09 05:48:26;;;;;;;2.55;1.70;;;;;;;8.23;56.85;100904.46;1716584;83;21818;-67
2021/05/09 05:50:54;;;;;;;2.22;1.72;;;;;;;8.26;56.70;100897.30;1716482;83;21124;-68
2021/05/09 05:53:23;;;;;;;4.15;1.75;;;;;;;8.31;56.68;100901.73;1716378;83;21289;-68
2021/05/09 05:55:51;;;;;;;3.33;1.57;;;;;;;8.36;56.66;100893.91;1716544;83;21171;-68
2021/05/09 05:58:19;;;;;;;4.10;1.90;;;;;;;8.43;56.49;100900.91;1716439;83;21419;-69
2021/05/09 06:00:47;;;;;;;2.60;1.67;;;;;;;8.52;56.22;100907.59;1716239;83;21427;-67
2021/05/09 06:03:15;;;;;;;1.50;1.37;;;;;;;8.62;55.75;100903.82;1716256;83;21053;-68
2021/05/09 06:05:46;;;;;;;2.65;1.60;;;;;;;8.70;54.07;100907.91;1716359;83;21052;-68
2021/05/09 06:08:16;;;;;;;2.37;1.20;;;;;;;8.78;53.29;100901.06;1716486;83;21025;-68
2021/05/09 06:10:44;;;;;;;3.02;1.65;;;;;;;8.88;53.22;100899.84;1716424;83;21037;-69
2021/05/09 06:13:12;;;;;;;1.67;1.10;;;;;;;8.97;52.94;100906.14;1716383;83;21056;-69
2021/05/09 06:15:40;;;;;;;2.55;1.27;;;;;;;9.07;51.84;100910.04;1716556;83;21113;-68
2021/05/09 06:18:08;;;;;;;1.80;1.20;;;;;;;9.15;51.64;100906.80;1716479;83;21044;-67
2021/05/09 06:20:36;;;;;;;2.12;1.45;;;;;;;9.23;51.30;100905.91;1716732;83;21065;-68
2021/05/09 06:23:03;;;;;;;2.08;1.32;;;;;;;9.32;50.98;100904.85;1716538;83;21044;-68
2021/05/09 06:25:32;;;;;;;1.67;1.05;;;;;;;9.42;51.10;100918.31;1716490;83;21076;-68
2021/05/09 06:27:59;;;;;;;2.15;1.30;;;;;;;9.52;50.34;100918.44;1716406;83;21239;-67
2021/05/09 06:30:27;;;;;;;2.65;1.20;;;;;;;9.63;49.89;100923.17;1716275;83;21316;-68
2021/05/09 06:32:54;;;;;;;2.12;1.32;;;;;;;9.74;49.88;100917.30;1716347;83;21048;-69
2021/05/09 06:35:22;;;;;;;3.42;1.10;;;;;;;9.83;49.61;100922.58;1716189;83;21052;-68
2021/05/09 06:37:54;;;;;;;1.45;1.10;;;;;;;9.92;49.05;100931.59;1716476;83;21196;-68
2021/05/09 06:40:22;;;;;;;1.57;1.12;;;;;;;10.00;48.04;100919.73;1716186;83;21068;-69
2021/05/09 06:42:57;;;;;;;1.40;1.10;;;;;;;10.07;48.37;100922.08;1715959;83;21227;-69
2021/05/09 06:45:27;;;;;;;1.75;1.10;;;;;;;10.15;48.34;100920.66;1716006;83;21191;-68
2021/05/09 06:47:56;;;;;;;1.50;1.12;;;;;;;10.26;48.23;100920.77;1716143;83;21065;-68
2021/05/09 06:50:24;;;;;;;1.67;1.05;;;;;;;10.38;48.06;100928.89;1716151;83;21346;-68
2021/05/09 06:52:51;;;;;;;3.47;1.00;;;;;;;10.47;47.72;100928.67;1689618;83;21195;-68
2021/05/09 06:55:19;;;;;;;1.57;0.93;;;;;;;10.53;47.32;100926.23;1716071;83;21021;-68
2021/05/09 06:57:47;;;;;;;1.95;1.20;;;;;;;10.59;47.22;100931.83;1718560;83;21230;-70
2021/05/09 07:00:16;;;;;;;1.32;1.10;;;;;;;10.67;47.23;100943.23;1723296;82;21190;-68
2021/05/09 07:02:45;;;;;;;1.90;1.30;;;;;;;10.72;47.22;100933.94;1723163;83;21791;-68
2021/05/09 07:05:13;;;;;;;1.42;1.15;;;;;;;10.80;47.63;100940.19;1723241;83;21351;-68
2021/05/09 07:07:54;;;;;;;1.70;1.12;;;;;;;10.92;47.48;100935.11;1723421;83;21100;-68
2021/05/09 07:10:24;;;;;;;1.30;1.07;;;;;;;11.03;46.79;100935.16;1723339;83;21056;-69
2021/05/09 07:12:52;;;;;;;2.72;1.15;;;;;;;11.13;46.10;100922.06;1722906;82;21084;-68
2021/05/09 07:15:26;;;;;;;1.87;1.20;;;;;;;11.23;46.49;100930.00;1723308;83;21387;-68
2021/05/09 07:17:57;;;;;;;1.52;1.07;;;;;;;11.35;46.34;100920.26;1723063;83;21115;-68
2021/05/09 07:20:26;;;;;;;2.00;1.10;;;;;;;11.48;46.39;100928.67;1723270;83;21186;-69
2021/05/09 07:22:55;;;;;;;1.30;0.90;;;;;;;11.59;46.20;100917.73;1723519;83;21072;-69
2021/05/09 07:25:22;;;;;;;1.95;1.07;;;;;;;11.69;45.77;100932.85;1723480;83;21079;-69
2021/05/09 07:27:50;;;;;;;4.10;1.05;;;;;;;11.77;45.12;100920.94;1723298;83;21353;-69
2021/05/09 07:30:18;;;;;;;2.62;1.35;;;;;;;11.81;44.80;100929.16;1723305;83;21273;-69
2021/05/09 07:32:45;;;;;;;1.77;1.45;;;;;;;11.85;44.14;100928.24;1723208;83;21735;-69
2021/05/09 07:35:13;;;;;;;3.33;2.60;;;;;;;11.87;43.92;100934.39;1723154;83;21460;-70
2021/05/09 07:37:41;;;;;;;1.87;1.62;;;;;;;11.85;43.45;100939.23;1723145;83;21087;-69
2021/05/09 07:40:09;;;;;;;1.98;1.37;;;;;;;11.83;43.94;100938.05;1723178;83;21187;-68
2021/05/09 07:42:37;;;;;;;2.02;1.32;;;;;;;11.91;44.13;100922.83;1723362;83;21296;-69
2021/05/09 07:45:14;;;;;;;1.35;0.98;;;;;;;12.04;43.40;100954.56;1723204;83;21080;-69
2021/05/09 07:47:37;;;;;;;2.20;1.02;;;;;;;12.09;43.35;100929.26;1722666;83;21111;-69
2021/05/09 07:50:08;;;;;;;4.50;1.42;;;;;;;12.19;43.09;100922.92;1723275;83;21335;-70
2021/05/09 07:52:34;;;;;;;1.50;1.10;;;;;;;12.31;42.03;100917.23;1724082;83;21123;-69
2021/05/09 07:55:02;;;;;;;1.72;1.10;;;;;;;12.44;41.08;100922.03;1723193;83;21396;-67
2021/05/09 07:57:30;;;;;;;4.55;1.10;;;;;;;12.53;40.98;100921.37;1723226;83;21163;-68
2021/05/09 07:59:58;;;;;;;1.95;1.15;;;;;;;12.61;41.11;100926.73;1723168;81;21194;-70
2021/05/09 08:02:25;;;;;;;1.27;0.90;;;;;;;12.64;40.71;100923.58;1723232;83;21103;-69
2021/05/09 08:04:54;;;;;;;2.33;1.00;;;;;;;12.60;40.69;100919.53;1723337;83;21071;-69
2021/05/09 08:07:21;;;;;;;1.17;0.90;;;;;;;12.53;41.57;100920.85;1723369;83;21335;-70
2021/05/09 08:09:49;;;;;;;2.60;1.00;;;;;;;12.55;41.18;100927.00;1723357;83;21063;-69
2021/05/09 08:12:17;;;;;;;1.42;1.00;;;;;;;12.60;41.06;100929.16;1723488;83;21076;-69
2021/05/09 08:14:45;;;;;;;1.50;1.10;;;;;;;12.67;41.21;100933.66;1720673;83;21090;-67
2021/05/09 08:17:12;;;;;;;1.45;1.00;;;;;;;12.77;40.43;100940.19;1721060;81;21317;-72
2021/05/09 08:19:40;;;;;;;1.85;1.10;;;;;;;12.77;40.39;100934.70;1725673;82;21038;-67
2021/05/09 08:22:07;;;;;;;1.30;1.05;;;;;;;12.75;40.88;100925.80;1717030;82;21070;-67
2021/05/09 08:24:35;;;;;;;2.10;1.00;;;;;;;12.72;40.90;100926.19;1710555;82;21079;-66
2021/05/09 08:27:03;;;;;;;13.13;2.05;;;;;;;12.68;40.77;100931.77;1720905;82;21063;-68
2021/05/09 08:29:30;;;;;;;4.10;1.00;;;;;;;12.64;41.13;100935.43;1719624;82;21414;-70
2021/05/09 08:31:58;;;;;;;1.20;0.90;;;;;;;12.75;40.90;100931.30;1732996;82;21098;-72
2021/05/09 08:34:25;;;;;;;1.82;1.07;;;;;;;12.87;39.65;100933.82;1730256;82;21782;-69
2021/05/09 08:36:53;;;;;;;2.05;1.15;;;;;;;12.97;39.87;100917.81;1713996;82;21346;-71
2021/05/09 08:39:20;;;;;;;1.17;1.07;;;;;;;13.11;40.18;100920.69;1713622;83;21357;-69
2021/05/09 08:41:50;;;;;;;1.30;0.98;;;;;;;13.23;39.88;100921.86;1713641;82;21269;-66
2021/05/09 08:44:17;;;;;;;3.95;1.45;;;;;;;13.30;38.95;100918.62;1713519;83;21193;-66
2021/05/09 08:46:46;;;;;;;1.00;0.80;;;;;;;13.34;37.97;100935.05;1724531;82;21175;-65
2021/05/09 08:49:15;;;;;;;2.30;1.00;;;;;;;13.38;37.03;100905.22;1733142;82;21251;-66
2021/05/09 08:51:42;;;;;;;2.85;0.90;;;;;;;13.44;36.73;100914.88;1711738;83;21051;-66
2021/05/09 08:54:10;;;;;;;2.42;0.85;;;;;;;13.53;36.93;100912.28;1668382;84;21102;-70
2021/05/09 08:56:38;;;;;;;1.75;0.75;;;;;;;13.66;36.80;100910.67;1705140;84;21083;-71
2021/05/09 08:59:08;;;;;;;1.00;0.90;;;;;;;13.70;35.07;100919.69;1706218;82;21161;-72
2021/05/09 09:01:39;;;;;;;2.00;0.80;;;;;;;13.78;35.56;100922.27;1697109;83;21403;-67
2021/05/09 09:04:06;;;;;;;1.02;0.90;;;;;;;13.89;35.84;100910.66;1753461;81;21341;-66
2021/05/09 09:06:44;;;;;;;1.07;0.70;;;;;;;14.01;35.36;100932.95;1753447;81;21820;-69
2021/05/09 09:09:23;;;;;;;1.17;0.72;;;;;;;14.07;34.89;100927.98;1724978;83;21066;-68
2021/05/09 09:11:54;;;;;;;1.00;0.90;;;;;;;14.07;35.06;100929.88;1753347;81;21251;-70
2021/05/09 09:14:25;;;;;;;1.02;0.70;;;;;;;14.11;34.91;100911.87;1724898;83;21105;-67
2021/05/09 09:17:12;;;;;;;1.62;0.90;;;;;;;14.20;34.87;100907.87;1753102;81;21189;-71
2021/05/09 09:20:14;;;;;;;1.17;0.82;;;;;;;14.27;35.77;100899.08;1753238;81;21366;-65
2021/05/09 09:23:00;;;;;;;0.93;0.82;;;;;;;14.49;35.66;100919.11;1724940;83;21196;-67
2021/05/09 09:25:30;;;;;;;1.02;0.80;;;;;;;14.63;34.96;100931.84;1752980;81;21092;-70
2021/05/09 09:27:58;;;;;;;0.85;0.80;;;;;;;14.62;35.47;100924.63;1719682;81;21317;-67
2021/05/09 09:30:29;;;;;;;0.98;0.88;;;;;;;14.65;34.83;100920.60;1716844;83;21102;-67
2021/05/09 09:33:10;;;;;;;1.10;0.72;;;;;;;14.71;35.41;100917.84;1717957;83;21294;-68
2021/05/09 09:35:39;;;;;;;2.10;0.90;;;;;;;14.82;35.06;100926.02;1717622;83;21094;-70
2021/05/09 09:38:24;;;;;;;1.47;1.00;;;;;;;14.79;33.24;100931.95;1717711;83;21118;-69
2021/05/09 09:41:23;;;;;;;1.25;0.80;;;;;;;14.58;34.47;100935.23;1717638;83;21085;-65
2021/05/09 09:44:09;;;;;;;0.90;0.78;;;;;;;14.53;35.32;100924.52;1717278;83;21357;-69
2021/05/09 09:46:42;;;;;;;2.40;0.78;;;;;;;14.47;35.42;100917.94;1717175;83;21059;-70
2021/05/09 09:49:23;;;;;;;2.15;0.88;;;;;;;14.42;35.64;100927.87;1714642;83;21074;-64
2021/05/09 09:51:55;;;;;;;1.05;0.90;;;;;;;14.33;34.59;100932.73;1717740;83;21747;-69
2021/05/09 09:54:48;;;;;;;1.07;0.80;;;;;;;14.17;34.59;100923.45;1717672;83;21066;-68
2021/05/09 09:57:29;;;;;;;1.70;0.68;;;;;;;14.20;34.82;100919.74;1717584;83;21464;-68
2021/05/09 10:00:13;;;;;;;1.60;0.98;;;;;;;14.32;34.74;100928.28;1718716;82;21165;-68
2021/05/09 10:02:44;;;;;;;1.75;1.07;;;;;;;14.47;34.44;100923.98;1719066;83;21075;-68
2021/05/09 10:05:12;;;;;;;1.85;0.90;;;;;;;14.43;35.03;100919.42;1719045;83;21075;-69
2021/05/09 10:07:40;;;;;;;2.08;1.10;;;;;;;14.43;35.79;100929.59;1719229;83;21062;-69
2021/05/09 10:10:10;;;;;;;1.32;0.88;;;;;;;14.48;36.05;100938.09;1673933;83;21281;-69
2021/05/09 10:12:41;;;;;;;2.60;1.10;;;;;;;14.59;35.34;100944.36;1719549;83;21079;-73
2021/05/09 10:15:09;;;;;;;2.37;1.00;;;;;;;14.59;34.37;100944.36;1719133;83;21286;-71
2021/05/09 10:17:38;;;;;;;6.03;4.05;;;;;;;14.54;35.22;100940.01;1719537;83;21181;-74
2021/05/09 10:20:10;;;;;;;1.65;1.25;;;;;;;14.58;35.20;100941.28;1719034;83;21071;-74
2021/05/09 10:22:48;;;;;;;1.77;1.20;;;;;;;14.63;34.91;100947.02;1697592;83;21115;-74
2021/05/09 10:25:55;;;;;;;2.15;1.20;;;;;;;14.72;35.02;100935.24;1678107;83;21209;-72
2021/05/09 10:28:41;;;;;;;2.75;1.40;;;;;;;14.89;35.01;100921.34;1719293;83;21070;-70
2021/05/09 10:31:30;;;;;;;1.80;0.90;;;;;;;15.20;35.13;100940.02;1724428;83;21070;-72
2021/05/09 10:34:06;;;;;;;1.98;0.80;;;;;;;15.39;35.03;100932.75;1725207;83;21277;-72
2021/05/09 10:36:38;;;;;;;1.52;0.80;;;;;;;15.55;33.93;100954.38;1716749;83;21302;-70
2021/05/09 10:39:21;;;;;;;0.80;0.78;;;;;;;15.60;33.63;100958.75;1716380;83;21083;-69
2021/05/09 10:42:02;;;;;;;1.10;0.90;;;;;;;15.68;33.81;100961.30;1716419;83;21066;-73
2021/05/09 10:44:49;;;;;;;1.20;0.90;;;;;;;15.79;33.29;100942.67;1716537;83;21066;-73
2021/05/09 10:47:33;;;;;;;0.80;0.80;;;;;;;15.90;32.97;100946.66;1716625;83;21075;-65
2021/05/09 10:53:34;;;;;;;3.00;1.00;;;;;;;15.84;32.79;100948.92;1695356;83;21353;-68
2021/05/09 10:56:04;;;;;;;2.20;1.00;;;;;;;15.72;33.28;100936.86;1717475;83;21074;-69
2021/05/09 10:58:51;;;;;;;0.72;0.70;;;;;;;15.77;32.98;100957.77;1717482;83;21031;-72
2021/05/09 11:01:32;;;;;;;1.12;0.70;;;;;;;15.77;32.67;100949.48;1717036;82;21831;-70
2021/05/09 11:04:04;;;;;;;1.87;0.80;;;;;;;15.67;32.39;100934.75;1697106;83;21305;-69
2021/05/09 11:06:47;;;;;;;;;;;;;;;15.53;32.92;100944.92;1690760;83;21182;-69
2021/05/09 11:09:28;;;;;;;2.08;0.98;;;;;;;15.49;32.67;100949.19;1706399;82;20294;-69
2021/05/09 11:12:04;;;;;;;1.98;0.93;;;;;;;15.30;33.06;100938.19;1702976;82;21253;-69
2021/05/09 11:14:41;;;;;;;1.15;0.90;;;;;;;15.12;33.94;100945.77;1688127;83;21062;-71
2021/05/09 11:17:17;;;;;;;1.72;1.07;;;;;;;15.10;34.24;100939.61;1687639;83;21046;-68
2021/05/09 11:19:48;;;;;;;3.15;0.90;;;;;;;15.21;34.37;100940.33;1712641;83;21232;-67
2021/05/09 11:22:20;;;;;;;1.55;0.98;;;;;;;15.37;34.57;100938.49;1711032;83;21082;-67
2021/05/09 11:24:54;;;;;;;2.00;1.00;;;;;;;15.50;34.08;100937.07;1715915;83;21717;-68
2021/05/09 11:27:22;;;;;;;1.55;0.80;;;;;;;15.55;33.70;100940.03;1712935;83;21933;-66
2021/05/09 11:29:52;;;;;;;1.47;1.05;;;;;;;15.54;32.85;100949.38;1715647;83;21100;-67
2021/05/09 11:32:21;;;;;;;3.02;1.22;;;;;;;15.41;33.09;100944.43;1715497;83;21106;-66
2021/05/09 11:34:55;;;;;;;1.45;1.12;;;;;;;15.21;33.20;100949.46;1698252;83;21372;-65
2021/05/09 11:37:37;;;;;;;2.17;1.10;;;;;;;15.20;33.38;100935.88;1704317;82;21094;-64
2021/05/09 11:40:10;;;;;;;1.00;0.90;;;;;;;15.33;33.41;100938.61;1708426;82;21260;-66
2021/05/09 11:42:38;;;;;;;1.30;0.90;;;;;;;15.59;33.08;100936.87;1709103;82;21177;-68
2021/05/09 11:45:07;;;;;;;1.40;0.90;;;;;;;15.71;32.73;100943.45;1709119;82;21049;-69
2021/05/09 11:47:36;;;;;;;0.85;0.78;;;;;;;15.74;32.63;100940.25;1717982;82;21226;-70